Time;durP1;ratioP1;P1;durP2;ratioP2;P2;SDS_P1;SDS_P2;PMS_P1;PMS_P2;Temp;Humidity;BMP_temperature;BMP_pressure;BME280_temperature;BME280_humidity;BME280_pressure;Samples;Min_cycle;Max_cycle;Signal;HPM_P1;HPM_P2
2023/09/12 00:00:56;;;;;;;;;;;19.10;99.90;;;;;;4876351;29;20441;-77
2023/09/12 00:03:23;;;;;;;5.70;4.85;;;19.10;99.90;;;;;;4861289;29;19970;-77
2023/09/12 00:05:53;;;;;;;4.75;3.90;;;19.10;99.90;;;;;;4861686;29;20078;-77
2023/09/12 00:08:19;;;;;;;4.82;4.32;;;19.00;99.90;;;;;;4877190;29;20053;-77
2023/09/12 00:10:44;;;;;;;;;;;19.00;99.90;;;;;;4859819;29;20121;-76
2023/09/12 00:13:10;;;;;;;4.05;3.63;;;19.00;99.90;;;;;;4858622;29;19920;-76
2023/09/12 00:15:36;;;;;;;;;;;19.00;99.90;;;;;;4874589;29;20037;-76
2023/09/12 00:18:02;;;;;;;5.00;3.80;;;19.00;99.90;;;;;;4869662;29;20576;-76
2023/09/12 00:20:28;;;;;;;4.25;3.85;;;19.00;99.90;;;;;;4858581;29;20915;-76
2023/09/12 00:22:54;;;;;;;;;;;19.00;99.90;;;;;;4877230;29;20148;-76
2023/09/12 00:25:20;;;;;;;4.07;3.53;;;19.00;99.90;;;;;;4870476;29;19964;-76
2023/09/12 00:27:46;;;;;;;4.30;3.90;;;19.00;99.90;;;;;;4876779;29;20049;-76
2023/09/12 00:30:12;;;;;;;;;;;18.90;99.90;;;;;;4876571;29;20180;-76
2023/09/12 00:32:37;;;;;;;4.30;3.90;;;18.90;99.90;;;;;;4875789;29;19930;-76
2023/09/12 00:35:03;;;;;;;;;;;18.90;99.90;;;;;;4843415;29;20513;-76
2023/09/12 00:37:29;;;;;;;5.18;4.22;;;18.90;99.90;;;;;;4860617;29;20300;-76
2023/09/12 00:39:54;;;;;;;;;;;18.90;99.90;;;;;;4871916;29;20131;-76
2023/09/12 00:42:20;;;;;;;3.90;3.50;;;18.90;99.90;;;;;;4872678;29;19924;-76
2023/09/12 00:44:45;;;;;;;;;;;18.90;99.90;;;;;;4870405;29;20057;-76
2023/09/12 00:47:12;;;;;;;4.45;4.05;;;18.80;99.90;;;;;;4895487;29;20026;-76
2023/09/12 00:49:39;;;;;;;6.15;4.90;;;18.80;99.90;;;;;;4869584;29;20500;-76
2023/09/12 00:52:05;;;;;;;4.80;3.92;;;18.80;99.90;;;;;;4876512;29;20040;-76
2023/09/12 00:54:31;;;;;;;4.70;4.20;;;18.80;99.90;;;;;;4870601;29;20552;-76
2023/09/12 00:56:57;;;;;;;;;;;18.80;99.90;;;;;;4856367;29;20052;-76
2023/09/12 00:59:22;;;;;;;4.10;3.70;;;18.80;99.90;;;;;;4875304;29;19991;-76
2023/09/12 01:01:48;;;;;;;5.50;4.95;;;18.80;99.90;;;;;;4876382;29;20053;-76
2023/09/12 01:04:14;;;;;;;;;;;18.80;99.90;;;;;;4877165;29;20056;-76
2023/09/12 01:06:40;;;;;;;4.60;4.10;;;18.80;99.90;;;;;;4876946;29;19941;-76
2023/09/12 01:09:05;;;;;;;;;;;18.80;99.90;;;;;;4879027;29;20101;-76
2023/09/12 01:11:31;;;;;;;4.72;4.10;;;18.70;99.90;;;;;;4876813;29;19935;-76
2023/09/12 01:13:57;;;;;;;;;;;18.70;99.90;;;;;;4877643;29;20092;-76
2023/09/12 01:16:22;;;;;;;4.85;4.32;;;18.70;99.90;;;;;;4862154;29;19928;-76
2023/09/12 01:18:48;;;;;;;;;;;18.70;99.90;;;;;;4865254;29;20036;-76
2023/09/12 01:21:48;;;;;;;4.25;3.72;;;18.70;99.90;;;;;;4859641;29;20014;-76
2023/09/12 01:25:03;;;;;;;5.07;4.45;;;18.70;99.90;;;;;;4874139;29;20056;-76
2023/09/12 01:27:40;;;;;;;4.72;4.10;;;18.70;99.90;;;;;;4877107;29;20063;-76
2023/09/12 01:30:08;;;;;;;4.95;4.15;;;18.70;99.90;;;;;;4867729;29;20052;-76
2023/09/12 01:32:35;;;;;;;4.57;4.18;;;18.70;99.90;;;;;;4858524;29;20120;-76
2023/09/12 01:35:03;;;;;;;5.22;4.20;;;18.70;99.90;;;;;;4865761;29;20044;-76
2023/09/12 01:37:30;;;;;;;4.45;4.03;;;18.70;99.90;;;;;;4876620;29;20056;-76
2023/09/12 01:39:56;;;;;;;5.50;4.45;;;18.60;99.90;;;;;;4868924;29;20073;-76
2023/09/12 01:42:22;;;;;;;;;;;18.60;99.90;;;;;;4878369;29;20450;-76
2023/09/12 01:44:53;;;;;;;4.60;4.00;;;18.60;99.90;;;;;;4872136;29;19920;-76
2023/09/12 01:47:20;;;;;;;4.85;4.25;;;18.50;99.90;;;;;;4857838;29;20045;-76
2023/09/12 01:49:49;;;;;;;4.95;4.30;;;18.60;99.90;;;;;;4859629;29;20048;-76
2023/09/12 01:52:15;;;;;;;4.97;4.13;;;18.50;99.90;;;;;;4858020;29;20141;-76
2023/09/12 01:54:42;;;;;;;4.95;4.20;;;18.50;99.90;;;;;;4867632;29;20044;-76
2023/09/12 01:57:09;;;;;;;4.28;3.88;;;18.50;99.90;;;;;;4856927;29;20044;-76
2023/09/12 01:59:35;;;;;;;4.72;4.15;;;18.50;99.90;;;;;;4868820;29;20045;-76
2023/09/12 02:02:01;;;;;;;;;;;18.50;99.90;;;;;;4871214;29;20056;-76
2023/09/12 02:04:26;;;;;;;7.70;4.88;;;18.50;99.90;;;;;;4876225;29;20500;-76
2023/09/12 02:06:52;;;;;;;;;;;18.50;99.90;;;;;;4858439;29;20053;-76
2023/09/12 02:09:17;;;;;;;5.55;4.57;;;18.40;99.90;;;;;;4858994;29;20348;-76
2023/09/12 02:11:43;;;;;;;;;;;18.40;99.90;;;;;;4877869;29;20457;-76
2023/09/12 02:14:10;;;;;;;4.97;4.18;;;18.40;99.90;;;;;;4860674;29;19919;-76
2023/09/12 02:16:39;;;;;;;4.82;4.10;;;18.30;99.90;;;;;;4869103;29;20060;-76
2023/09/12 02:19:06;;;;;;;4.50;4.10;;;18.30;99.90;;;;;;4860472;29;20397;-76
2023/09/12 02:21:32;;;;;;;4.80;4.15;;;18.30;99.90;;;;;;4858024;29;20171;-76
2023/09/12 02:23:58;;;;;;;;;;;18.20;99.90;;;;;;4858235;29;20149;-76
2023/09/12 02:26:23;;;;;;;4.35;3.95;;;18.20;99.90;;;;;;4869211;29;19920;-76
2023/09/12 02:28:49;;;;;;;;;;;18.20;99.90;;;;;;4876536;29;20053;-76
2023/09/12 02:31:15;;;;;;;4.97;4.32;;;18.20;99.90;;;;;;4861846;29;19971;-76
2023/09/12 02:33:40;;;;;;;;;;;18.20;99.90;;;;;;4876668;29;20084;-76
2023/09/12 02:36:06;;;;;;;5.47;4.22;;;18.20;99.90;;;;;;4852192;29;20291;-76
2023/09/12 02:38:32;;;;;;;5.20;4.57;;;18.10;99.90;;;;;;4842105;29;20073;-76
2023/09/12 02:40:58;;;;;;;;;;;18.20;99.90;;;;;;4864446;29;20065;-76
2023/09/12 02:43:24;;;;;;;4.18;3.78;;;18.20;99.90;;;;;;4861729;29;19927;-76
2023/09/12 02:45:49;;;;;;;;;;;18.20;99.90;;;;;;4852547;29;20124;-76
2023/09/12 02:48:15;;;;;;;4.97;4.35;;;18.20;99.90;;;;;;4844778;29;19923;-76
2023/09/12 02:50:41;;;;;;;;;;;18.20;99.90;;;;;;4874164;29;20205;-76
2023/09/12 02:53:07;;;;;;;5.60;4.22;;;18.20;99.90;;;;;;4875293;29;19919;-76
2023/09/12 02:55:32;;;;;;;;;;;18.30;99.90;;;;;;4860137;29;20060;-76
2023/09/12 02:57:58;;;;;;;5.70;5.10;;;18.20;99.90;;;;;;4873477;29;19930;-76
2023/09/12 03:00:24;;;;;;;;;;;18.30;99.90;;;;;;4880422;29;20049;-76
2023/09/12 03:02:49;;;;;;;6.30;4.90;;;18.20;99.90;;;;;;4873842;29;19942;-76
2023/09/12 03:05:15;;;;;;;;;;;18.30;99.90;;;;;;4879397;29;20045;-76
2023/09/12 03:07:41;;;;;;;4.90;4.43;;;18.30;99.90;;;;;;4861970;29;19924;-76
2023/09/12 03:10:07;;;;;;;;;;;18.20;99.90;;;;;;4861098;29;20068;-76
2023/09/12 03:12:32;;;;;;;4.75;4.25;;;18.10;99.90;;;;;;4873505;29;19931;-76
2023/09/12 03:14:58;;;;;;;;;;;18.10;99.90;;;;;;4861395;29;20098;-76
2023/09/12 03:17:23;;;;;;;4.60;4.20;;;18.10;99.90;;;;;;4876279;29;20298;-76
2023/09/12 03:19:49;;;;;;;;;;;18.10;99.90;;;;;;4878294;29;20041;-76
2023/09/12 03:22:15;;;;;;;5.13;4.63;;;18.10;99.90;;;;;;4878012;29;19966;-76
2023/09/12 03:24:40;;;;;;;;;;;18.10;99.90;;;;;;4875791;29;20497;-76
2023/09/12 03:27:07;;;;;;;5.00;4.10;;;18.10;99.90;;;;;;4870883;29;19932;-76
2023/09/12 03:29:33;;;;;;;4.82;4.28;;;18.20;99.90;;;;;;4877430;29;20076;-76
2023/09/12 03:31:59;;;;;;;;;;;18.10;99.90;;;;;;4873969;29;20409;-76
2023/09/12 03:34:24;;;;;;;4.95;4.03;;;18.10;99.90;;;;;;4875274;29;19919;-76
2023/09/12 03:36:50;;;;;;;;;;;18.20;99.90;;;;;;4866694;29;20037;-76
2023/09/12 03:39:15;;;;;;;4.22;3.70;;;18.10;99.90;;;;;;4878224;29;19966;-76
2023/09/12 03:41:41;;;;;;;;;;;18.10;99.90;;;;;;4878679;29;20051;-76
2023/09/12 03:44:07;;;;;;;4.70;3.90;;;18.10;99.90;;;;;;4856582;29;19919;-76
2023/09/12 03:46:32;;;;;;;;;;;18.10;99.90;;;;;;4875046;29;20535;-76
2023/09/12 03:48:58;;;;;;;3.88;3.45;;;18.00;99.90;;;;;;4853294;29;19919;-76
2023/09/12 03:51:24;;;;;;;4.28;3.53;;;18.00;99.90;;;;;;4877952;29;20053;-76
2023/09/12 03:53:49;;;;;;;;;;;17.90;99.90;;;;;;4870578;29;20048;-76
2023/09/12 03:56:16;;;;;;;5.35;4.55;;;18.00;99.90;;;;;;4877115;29;19920;-76
2023/09/12 03:58:42;;;;;;;5.35;4.50;;;18.00;99.90;;;;;;4862732;29;20049;-76
2023/09/12 04:01:07;;;;;;;;;;;17.90;99.90;;;;;;4875466;29;20084;-76
2023/09/12 04:03:33;;;;;;;4.40;4.00;;;17.90;99.90;;;;;;4877013;29;19924;-76
2023/09/12 04:05:59;;;;;;;;;;;17.90;99.90;;;;;;4862207;29;20129;-76
2023/09/12 04:08:24;;;;;;;5.45;4.88;;;17.90;99.90;;;;;;4861655;29;19931;-76
2023/09/12 04:10:50;;;;;;;5.88;4.80;;;17.90;99.90;;;;;;4875231;29;20045;-76
2023/09/12 04:13:16;;;;;;;;;;;17.80;99.90;;;;;;4877564;29;20166;-75
2023/09/12 04:15:41;;;;;;;4.75;4.03;;;17.80;99.90;;;;;;4865741;29;20379;-76
2023/09/12 04:18:07;;;;;;;;;;;17.70;99.90;;;;;;4855712;29;20508;-76
2023/09/12 04:20:33;;;;;;;5.18;3.92;;;17.70;99.90;;;;;;4877944;29;19924;-76
2023/09/12 04:23:04;;;;;;;;;;;17.70;99.90;;;;;;4876336;29;20089;-76
2023/09/12 04:25:30;;;;;;;4.80;4.30;;;17.70;99.90;;;;;;4861867;29;19920;-76
2023/09/12 04:27:56;;;;;;;5.00;4.32;;;17.60;99.90;;;;;;4876393;29;20052;-76
2023/09/12 04:30:22;;;;;;;;;;;17.60;99.90;;;;;;4876471;29;20281;-76
2023/09/12 04:32:47;;;;;;;4.60;4.15;;;17.60;99.90;;;;;;4875076;29;19930;-76
2023/09/12 04:35:13;;;;;;;4.88;4.35;;;17.60;99.90;;;;;;4860871;29;20189;-76
2023/09/12 04:37:39;;;;;;;;;;;17.60;99.90;;;;;;4870255;29;20193;-76
2023/09/12 04:40:06;;;;;;;4.32;3.80;;;17.60;99.90;;;;;;4859190;29;19924;-76
2023/09/12 04:42:32;;;;;;;4.43;4.03;;;17.50;99.90;;;;;;4874068;29;20037;-76
2023/09/12 04:44:57;;;;;;;;;;;17.50;99.90;;;;;;4863640;29;20630;-76
2023/09/12 04:47:24;;;;;;;5.10;4.50;;;17.50;99.90;;;;;;4875302;29;19924;-76
2023/09/12 04:49:50;;;;;;;4.95;4.30;;;17.50;99.90;;;;;;4877896;29;20535;-76
2023/09/12 04:52:16;;;;;;;;;;;17.60;99.90;;;;;;4874381;29;20061;-76
2023/09/12 04:54:41;;;;;;;4.55;4.00;;;17.50;99.90;;;;;;4877009;29;20488;-76
2023/09/12 04:57:07;;;;;;;;;;;17.50;99.90;;;;;;4876454;29;20041;-77
2023/09/12 04:59:33;;;;;;;3.90;3.50;;;17.50;99.90;;;;;;4857400;29;19924;-76
2023/09/12 05:01:59;;;;;;;3.63;3.33;;;17.60;99.90;;;;;;4850105;29;20109;-76
2023/09/12 05:04:24;;;;;;;;;;;17.50;99.90;;;;;;4870816;29;20096;-75
2023/09/12 05:06:50;;;;;;;3.08;2.78;;;17.50;99.90;;;;;;4877215;29;19971;-75
2023/09/12 05:09:16;;;;;;;;;;;17.50;99.90;;;;;;4859845;29;20101;-75
2023/09/12 05:11:41;;;;;;;3.03;2.72;;;17.40;99.90;;;;;;4873432;29;19934;-76
2023/09/12 05:14:07;;;;;;;;;;;17.50;99.90;;;;;;4871509;29;20051;-75
2023/09/12 05:16:33;;;;;;;2.92;2.63;;;17.40;99.90;;;;;;4875057;29;19926;-75
2023/09/12 05:18:58;;;;;;;;;;;17.40;99.90;;;;;;4859671;29;20053;-75
2023/09/12 05:21:24;;;;;;;3.13;2.60;;;17.40;99.90;;;;;;4859679;29;19930;-75
2023/09/12 05:23:50;;;;;;;;;;;17.40;99.90;;;;;;4854687;29;20041;-75
2023/09/12 05:26:15;;;;;;;3.33;3.03;;;17.40;99.90;;;;;;4856614;29;19943;-75
2023/09/12 05:28:42;;;;;;;2.92;2.63;;;17.30;99.90;;;;;;4872298;29;20057;-75
2023/09/12 05:31:07;;;;;;;2.40;2.20;;;17.30;99.90;;;;;;4873072;29;20537;-75
2023/09/12 05:33:33;;;;;;;;;;;17.30;99.90;;;;;;4856753;29;20100;-74
2023/09/12 05:35:59;;;;;;;2.97;2.60;;;17.30;99.90;;;;;;4859005;29;19927;-75
2023/09/12 05:38:24;;;;;;;3.63;3.15;;;17.30;99.90;;;;;;4856297;29;20132;-75
2023/09/12 05:40:50;;;;;;;;;;;17.30;99.90;;;;;;4873662;29;20048;-75
2023/09/12 05:43:16;;;;;;;3.65;3.20;;;17.40;99.90;;;;;;4870590;29;19920;-75
2023/09/12 05:45:42;;;;;;;5.18;4.68;;;17.30;99.90;;;;;;4873992;29;20048;-75
2023/09/12 05:48:09;;;;;;;;;;;17.40;99.90;;;;;;4874228;29;20053;-75
2023/09/12 05:50:36;;;;;;;3.50;3.20;;;17.40;99.90;;;;;;4860160;29;19938;-75
2023/09/12 05:53:02;;;;;;;4.10;3.53;;;17.50;99.90;;;;;;4873591;29;20044;-75
2023/09/12 05:55:28;;;;;;;;;;;17.50;99.90;;;;;;4872634;29;20052;-75
2023/09/12 05:57:53;;;;;;;4.00;3.55;;;17.50;99.90;;;;;;4857889;29;19923;-76
2023/09/12 06:00:20;;;;;;;;;;;17.60;99.90;;;;;;4875078;29;20163;-76
2023/09/12 06:02:49;;;;;;;3.50;3.20;;;17.50;99.90;;;;;;4862454;29;19924;-75
2023/09/12 06:05:15;;;;;;;3.90;3.50;;;17.60;99.90;;;;;;4858460;29;20061;-75
2023/09/12 06:07:41;;;;;;;4.22;3.67;;;17.60;99.90;;;;;;4874485;29;20057;-75
2023/09/12 06:10:08;;;;;;;4.10;3.70;;;17.60;99.90;;;;;;4874677;29;20059;-75
2023/09/12 06:12:35;;;;;;;3.42;3.10;;;17.60;99.90;;;;;;4870641;29;20080;-75
2023/09/12 06:15:03;;;;;;;3.83;3.42;;;17.60;99.90;;;;;;4875852;29;20041;-75
2023/09/12 06:17:29;;;;;;;5.22;4.20;;;17.70;99.90;;;;;;4868948;29;20136;-75
2023/09/12 06:19:55;;;;;;;;;;;17.70;99.90;;;;;;4874759;29;20131;-75
2023/09/12 06:22:22;;;;;;;5.38;4.53;;;17.70;99.90;;;;;;4870752;29;19934;-74
2023/09/12 06:24:51;;;;;;;5.32;4.55;;;17.70;99.90;;;;;;4865893;29;20060;-75
2023/09/12 06:27:19;;;;;;;5.13;4.10;;;17.80;99.90;;;;;;4867515;29;20044;-75
2023/09/12 06:29:48;;;;;;;4.72;3.78;;;17.80;99.90;;;;;;4858463;29;20104;-74
2023/09/12 06:32:15;;;;;;;5.70;4.20;;;17.90;99.90;;;;;;4863051;29;20041;-74
2023/09/12 06:34:41;;;;;;;4.90;4.20;;;17.90;99.90;;;;;;4868528;29;20090;-75
2023/09/12 06:37:06;;;;;;;5.65;4.35;;;17.90;99.90;;;;;;4845937;29;20054;-75
2023/09/12 06:39:32;;;;;;;;;;;18.00;99.90;;;;;;4870257;29;20086;-75
2023/09/12 06:41:58;;;;;;;6.90;5.07;;;18.00;99.90;;;;;;4878143;29;19995;-75
2023/09/12 06:44:23;;;;;;;;;;;18.00;99.90;;;;;;4877215;29;20064;-75
2023/09/12 06:46:49;;;;;;;7.15;4.65;;;17.90;99.90;;;;;;4908857;29;19931;-75
2023/09/12 06:49:15;;;;;;;;;;;18.00;99.90;;;;;;4873266;29;20053;-75
2023/09/12 06:51:40;;;;;;;7.10;5.10;;;18.10;99.90;;;;;;4871612;29;19939;-75
2023/09/12 06:54:06;;;;;;;5.85;4.55;;;18.10;99.90;;;;;;4865612;29;20044;-75
2023/09/12 06:56:32;;;;;;;;;;;17.90;99.90;;;;;;4873027;29;20041;-75
2023/09/12 06:58:59;;;;;;;7.30;5.88;;;18.10;99.90;;;;;;4874432;29;19967;-75
2023/09/12 07:01:25;;;;;;;6.32;4.95;;;18.10;99.90;;;;;;4855050;29;20053;-75
2023/09/12 07:03:53;;;;;;;;;;;18.00;99.90;;;;;;4876636;29;20064;-75
2023/09/12 07:06:19;;;;;;;7.13;5.65;;;18.10;99.90;;;;;;4877417;29;19923;-75
2023/09/12 07:08:45;;;;;;;;;;;18.10;99.90;;;;;;4867152;29;20045;-75
2023/09/12 07:11:10;;;;;;;6.50;4.82;;;18.10;99.90;;;;;;4877070;29;20455;-74
2023/09/12 07:13:36;;;;;;;;;;;18.30;99.90;;;;;;4879262;29;20070;-75
2023/09/12 07:16:03;;;;;;;7.18;5.82;;;18.40;99.90;;;;;;4877486;29;19923;-75
2023/09/12 07:18:32;;;;;;;7.10;5.35;;;18.30;99.90;;;;;;4875696;29;20123;-75
2023/09/12 07:21:03;;;;;;;10.88;7.25;;;18.40;99.90;;;;;;4869565;29;20056;-75
2023/09/12 07:23:29;;;;;;;9.52;7.05;;;18.40;99.90;;;;;;4858988;29;20057;-75
2023/09/12 07:25:59;;;;;;;9.13;6.78;;;18.50;99.90;;;;;;4847878;29;20049;-75
2023/09/12 07:28:25;;;;;;;9.63;6.90;;;18.60;99.90;;;;;;4877501;29;20048;-75
2023/09/12 07:30:51;;;;;;;7.65;6.03;;;18.50;99.90;;;;;;4867409;29;20045;-75
2023/09/12 07:33:17;;;;;;;;;;;18.70;99.90;;;;;;4864212;29;20394;-75
2023/09/12 07:35:42;;;;;;;7.43;5.53;;;18.80;99.90;;;;;;4873065;29;20034;-75
2023/09/12 07:38:08;;;;;;;;;;;18.90;99.90;;;;;;4876851;29;20106;-75
2023/09/12 07:40:33;;;;;;;8.63;6.72;;;18.90;99.90;;;;;;4875444;29;19970;-75
2023/09/12 07:42:59;;;;;;;;;;;18.90;99.90;;;;;;4845388;29;20048;-75
2023/09/12 07:45:25;;;;;;;11.43;8.10;;;19.00;99.90;;;;;;4869763;29;19997;-75
2023/09/12 07:47:51;;;;;;;;;;;19.00;99.90;;;;;;4875308;29;20417;-75
2023/09/12 07:50:16;;;;;;;8.10;6.32;;;19.00;99.90;;;;;;4869045;29;19944;-75
2023/09/12 07:52:42;;;;;;;;;;;18.90;99.90;;;;;;4875941;29;20565;-75
2023/09/12 07:55:08;;;;;;;6.70;5.60;;;19.10;99.90;;;;;;4873531;29;20372;-75
2023/09/12 07:57:34;;;;;;;7.50;6.03;;;19.20;99.90;;;;;;4844499;29;20114;-75
2023/09/12 08:00:06;;;;;;;;;;;19.10;99.90;;;;;;4846613;29;20033;-75
2023/09/12 08:02:32;;;;;;;8.88;6.93;;;19.20;99.90;;;;;;4863085;29;19924;-75
2023/09/12 08:04:57;;;;;;;;;;;19.20;99.90;;;;;;4876597;29;20136;-75
2023/09/12 08:07:23;;;;;;;7.90;6.00;;;19.20;99.90;;;;;;4876372;29;19920;-75
2023/09/12 08:09:50;;;;;;;;;;;19.10;99.90;;;;;;4868176;29;20049;-75
2023/09/12 08:12:16;;;;;;;10.10;8.05;;;19.10;99.90;;;;;;4870456;29;20291;-75
2023/09/12 08:14:42;;;;;;;10.02;7.50;;;19.20;99.90;;;;;;4868676;29;20381;-75
2023/09/12 08:17:08;;;;;;;;;;;19.10;99.90;;;;;;4869994;29;20048;-75
2023/09/12 08:19:34;;;;;;;8.40;7.07;;;19.10;99.90;;;;;;4877350;29;19930;-75
2023/09/12 08:21:59;;;;;;;;;;;19.20;99.90;;;;;;4876220;29;20309;-75
2023/09/12 08:24:25;;;;;;;7.35;5.95;;;19.20;99.90;;;;;;4871802;29;20015;-75
2023/09/12 08:26:51;;;;;;;7.07;5.50;;;19.40;99.90;;;;;;4876515;29;20426;-75
2023/09/12 08:29:16;;;;;;;;;;;19.40;99.90;;;;;;4876661;29;20120;-75
2023/09/12 08:31:42;;;;;;;10.35;8.73;;;19.40;99.90;;;;;;4861793;29;19932;-75
2023/09/12 08:34:08;;;;;;;9.07;6.95;;;19.50;99.90;;;;;;4862020;29;20037;-75
2023/09/12 08:36:35;;;;;;;;;;;19.50;99.90;;;;;;4875117;29;20052;-75
2023/09/12 08:39:01;;;;;;;6.90;5.85;;;19.60;99.90;;;;;;4876505;29;19932;-75
2023/09/12 08:41:27;;;;;;;6.53;5.32;;;19.80;99.90;;;;;;4865470;29;20101;-75
2023/09/12 08:43:53;;;;;;;;;;;19.80;99.90;;;;;;4855396;29;20053;-75
2023/09/12 08:46:20;;;;;;;6.97;5.47;;;19.90;99.90;;;;;;4861815;29;19931;-75
2023/09/12 08:48:49;;;;;;;7.15;5.97;;;20.10;99.90;;;;;;4873674;29;20504;-75
2023/09/12 08:51:14;;;;;;;7.50;5.45;;;20.20;99.90;;;;;;4871339;29;20073;-75
2023/09/12 08:53:40;;;;;;;6.88;5.43;;;20.40;99.90;;;;;;4874929;29;20487;-75
2023/09/12 08:56:07;;;;;;;8.95;6.72;;;20.50;99.90;;;;;;4871254;29;20052;-76
2023/09/12 08:58:35;;;;;;;9.75;7.03;;;20.50;99.90;;;;;;4866071;29;20083;-75
2023/09/12 09:01:03;;;;;;;7.53;5.70;;;20.50;99.90;;;;;;4872953;29;20044;-76
2023/09/12 09:03:29;;;;;;;6.65;5.38;;;20.50;99.90;;;;;;4876390;29;20085;-76
2023/09/12 09:05:57;;;;;;;7.07;5.80;;;20.50;99.90;;;;;;4876145;29;20413;-76
2023/09/12 09:08:24;;;;;;;7.93;6.10;;;20.40;99.90;;;;;;4874138;29;20045;-76
2023/09/12 09:11:02;;;;;;;8.43;6.70;;;20.30;99.90;;;;;;4860926;29;20057;-76
2023/09/12 09:13:27;;;;;;;7.65;6.32;;;20.30;99.90;;;;;;4842988;29;20046;-76
2023/09/12 09:16:13;;;;;;;8.45;6.55;;;20.40;99.90;;;;;;4858388;29;20097;-76
2023/09/12 09:18:55;;;;;;;7.93;6.50;;;20.40;99.90;;;;;;4858534;29;20045;-76
2023/09/12 09:21:26;;;;;;;7.68;6.47;;;20.40;99.90;;;;;;4858612;29;20052;-76
2023/09/12 09:23:53;;;;;;;8.27;6.38;;;20.40;99.90;;;;;;4858390;29;20058;-76
2023/09/12 09:26:19;;;;;;;7.78;6.28;;;20.40;99.90;;;;;;4860226;29;20548;-76
2023/09/12 09:28:45;;;;;;;8.57;6.40;;;20.50;99.90;;;;;;4876709;29;20060;-76
2023/09/12 09:31:13;;;;;;;9.13;6.70;;;20.50;99.90;;;;;;4874058;29;20053;-76
2023/09/12 09:33:51;;;;;;;7.43;6.32;;;20.50;99.90;;;;;;4858156;29;20527;-76
2023/09/12 09:36:16;;;;;;;9.38;7.50;;;20.50;99.90;;;;;;4865408;29;20076;-76
2023/09/12 09:38:43;;;;;;;9.43;7.38;;;20.50;99.90;;;;;;4876373;29;20153;-76
2023/09/12 09:41:09;;;;;;;8.93;6.90;;;20.50;99.90;;;;;;4875121;29;20279;-76
2023/09/12 09:43:35;;;;;;;10.45;7.40;;;20.50;99.90;;;;;;4842860;29;20136;-76
2023/09/12 09:46:02;;;;;;;7.55;6.60;;;20.40;99.90;;;;;;4871777;29;20131;-76
2023/09/12 09:48:30;;;;;;;10.00;7.47;;;20.50;99.90;;;;;;4860142;29;20056;-76
2023/09/12 09:51:03;;;;;;;6.68;5.40;;;20.50;99.90;;;;;;4875995;29;20402;-76
2023/09/12 09:53:33;;;;;;;5.20;4.20;;;20.70;99.90;;;;;;4845405;29;20516;-76
2023/09/12 09:56:15;;;;;;;7.22;5.50;;;20.80;99.90;;;;;;4857794;29;20045;-76
2023/09/12 09:58:55;;;;;;;6.10;5.18;;;20.90;99.90;;;;;;4874121;29;20081;-76
2023/09/12 10:01:28;;;;;;;8.40;6.47;;;21.10;99.90;;;;;;4845772;29;20454;-76
2023/09/12 10:04:00;;;;;;;8.52;5.97;;;21.10;99.90;;;;;;4875476;29;20049;-76
2023/09/12 10:06:27;;;;;;;6.20;5.30;;;21.10;99.90;;;;;;4876263;29;20051;-76
2023/09/12 10:08:54;;;;;;;7.32;5.72;;;21.10;99.90;;;;;;4860030;29;20558;-76
2023/09/12 10:11:29;;;;;;;9.50;6.97;;;21.10;99.90;;;;;;4842688;29;20041;-76
2023/09/12 10:13:57;;;;;;;10.35;7.88;;;21.10;99.90;;;;;;4857840;29;20102;-76
2023/09/12 10:16:34;;;;;;;9.57;7.65;;;21.20;99.90;;;;;;4857701;29;20605;-76
2023/09/12 10:19:20;;;;;;;8.65;6.72;;;21.30;99.90;;;;;;4857838;29;20041;-76
2023/09/12 10:22:09;;;;;;;7.85;6.38;;;21.50;99.90;;;;;;4865534;29;20085;-76
2023/09/12 10:24:35;;;;;;;6.45;5.43;;;21.70;99.90;;;;;;4857493;29;20052;-76
2023/09/12 10:27:03;;;;;;;9.90;7.32;;;21.90;99.90;;;;;;4871276;29;20131;-76
2023/09/12 10:29:30;;;;;;;8.52;6.55;;;22.00;99.90;;;;;;4875972;29;20517;-76
2023/09/12 10:31:56;;;;;;;7.90;6.38;;;22.20;99.90;;;;;;4866123;29;20049;-76
2023/09/12 10:34:25;;;;;;;22.08;14.70;;;22.20;99.90;;;;;;4875643;29;20490;-76
2023/09/12 10:36:52;;;;;;;12.43;9.80;;;22.10;99.90;;;;;;4876881;29;20124;-76
2023/09/12 10:39:20;;;;;;;15.05;11.25;;;22.20;99.90;;;;;;4875441;29;20064;-76
2023/09/12 10:41:46;;;;;;;11.70;8.48;;;22.10;99.90;;;;;;4867657;29;20439;-76
2023/09/12 10:44:16;;;;;;;11.18;8.10;;;22.10;99.90;;;;;;4842189;29;20378;-76
2023/09/12 10:46:44;;;;;;;7.00;6.25;;;22.00;99.90;;;;;;4857264;29;20114;-76
2023/09/12 10:49:11;;;;;;;7.18;6.00;;;22.20;99.90;;;;;;4857276;29;20089;-76
2023/09/12 10:51:45;;;;;;;6.30;5.35;;;22.30;99.90;;;;;;4863624;29;20048;-76
2023/09/12 10:54:22;;;;;;;6.38;5.20;;;22.30;99.90;;;;;;4860764;29;20045;-76
2023/09/12 10:57:05;;;;;;;5.97;4.90;;;22.40;99.90;;;;;;4845548;29;20045;-76
2023/09/12 10:59:36;;;;;;;7.72;6.10;;;22.50;99.90;;;;;;4863094;29;20045;-76
2023/09/12 11:02:28;;;;;;;7.07;5.55;;;22.50;99.90;;;;;;4866534;29;20053;-76
2023/09/12 11:04:54;;;;;;;6.13;5.10;;;22.50;99.90;;;;;;4866452;29;20056;-76
2023/09/12 11:07:37;;;;;;;6.95;5.32;;;22.50;99.90;;;;;;4875784;29;20055;-76
2023/09/12 11:10:20;;;;;;;6.40;5.40;;;22.60;99.90;;;;;;4857177;29;20056;-76
2023/09/12 11:12:48;;;;;;;8.90;6.40;;;22.60;99.90;;;;;;4858711;29;20045;-76
2023/09/12 11:15:17;;;;;;;6.45;5.13;;;22.60;99.90;;;;;;4856998;29;20397;-76
2023/09/12 11:17:47;;;;;;;6.70;5.53;;;22.60;99.90;;;;;;4857461;29;20050;-76
2023/09/12 11:20:15;;;;;;;7.00;5.60;;;22.60;99.90;;;;;;4843097;29;20057;-76
2023/09/12 11:22:42;;;;;;;7.53;5.00;;;22.60;99.90;;;;;;4861949;29;20065;-76
2023/09/12 11:25:23;;;;;;;5.93;4.63;;;22.80;99.90;;;;;;4860271;29;20061;-76
2023/09/12 11:27:52;;;;;;;6.45;4.95;;;22.80;99.90;;;;;;4864528;29;20585;-76
2023/09/12 11:30:19;;;;;;;6.38;5.05;;;22.80;99.90;;;;;;4863624;29;20066;-76
2023/09/12 11:32:51;;;;;;;7.10;5.60;;;22.80;99.90;;;;;;4870828;29;20060;-76
2023/09/12 11:35:23;;;;;;;7.38;6.00;;;22.80;99.90;;;;;;4878382;29;20135;-76
2023/09/12 11:37:50;;;;;;;6.97;5.43;;;22.90;99.90;;;;;;4876971;29;20080;-76
2023/09/12 11:40:33;;;;;;;7.35;5.38;;;23.10;99.90;;;;;;4875821;29;20053;-76
2023/09/12 11:42:59;;;;;;;14.77;11.30;;;23.30;99.90;;;;;;4876038;29;20136;-76
2023/09/12 11:45:25;;;;;;;10.43;7.97;;;23.40;99.90;;;;;;4874855;29;20049;-76
2023/09/12 11:47:51;;;;;;;9.65;7.43;;;23.80;9.90;;;;;;4877984;29;20113;-76
2023/09/12 11:50:30;;;;;;;7.70;5.97;;;23.90;99.90;;;;;;4870898;29;20041;-76
2023/09/12 11:53:07;;;;;;;7.03;5.75;;;23.90;14.60;;;;;;4862767;29;20049;-76
2023/09/12 11:55:53;;;;;;;6.03;5.10;;;23.90;48.90;;;;;;4877915;29;20393;-76
2023/09/12 11:58:20;;;;;;;5.68;4.78;;;23.90;1.00;;;;;;4868022;29;20041;-76
2023/09/12 12:00:48;;;;;;;6.82;5.20;;;23.90;48.50;;;;;;4857730;29;20059;-76
2023/09/12 12:03:18;;;;;;;7.63;5.50;;;23.80;23.70;;;;;;4866250;29;20584;-76
2023/09/12 12:05:44;;;;;;;7.03;5.78;;;23.70;99.90;;;;;;4860016;29;20549;-76
2023/09/12 12:08:14;;;;;;;5.70;4.78;;;23.60;1.00;;;;;;4858666;29;20145;-76
2023/09/12 12:10:40;;;;;;;6.75;5.40;;;23.60;99.90;;;;;;4877369;29;20053;-76
2023/09/12 12:13:11;;;;;;;7.47;5.72;;;23.60;99.90;;;;;;4874986;29;20097;-76
2023/09/12 12:15:37;;;;;;;6.80;4.97;;;23.60;1.00;;;;;;4866122;29;20569;-76
2023/09/12 12:18:03;;;;;;;6.57;5.32;;;23.90;1.00;;;;;;4873144;29;20041;-76
2023/09/12 12:20:30;;;;;;;10.95;8.30;;;24.30;99.90;;;;;;4857069;29;20134;-76
2023/09/12 12:22:56;;;;;;;6.90;5.65;;;24.00;99.90;;;;;;4862120;29;20045;-76
2023/09/12 12:25:22;;;;;;;8.25;5.93;;;23.90;1.00;;;;;;4868128;29;20041;-76
2023/09/12 12:27:48;;;;;;;7.03;5.13;;;23.70;43.40;;;;;;4870370;29;20045;-76
2023/09/12 12:30:14;;;;;;;6.20;5.20;;;23.60;99.90;;;;;;4873868;29;20156;-76
2023/09/12 12:32:46;;;;;;;7.72;6.45;;;23.40;1.00;;;;;;4859975;29;20078;-76
2023/09/12 12:35:23;;;;;;;6.90;5.63;;;23.20;9.80;;;;;;4860696;29;20049;-88
2023/09/12 12:37:50;;;;;;;5.85;4.40;;;23.10;99.90;;;;;;4871462;29;20036;-75
2023/09/12 12:40:16;;;;;;;9.15;6.72;;;23.00;99.90;;;;;;4875860;29;20057;-75
2023/09/12 12:42:43;;;;;;;5.47;4.65;;;22.80;99.90;;;;;;4854140;29;20053;-76
2023/09/12 12:45:13;;;;;;;9.73;6.45;;;22.70;99.90;;;;;;4876757;29;20052;-76
2023/09/12 12:47:39;;;;;;;11.63;9.00;;;22.60;1.00;;;;;;4876656;29;20470;-76
2023/09/12 12:50:19;;;;;;;12.82;9.80;;;22.50;1.00;;;;;;4876574;29;20053;-76
2023/09/12 12:52:47;;;;;;;11.50;8.40;;;22.50;13.10;;;;;;4861491;29;20041;-76
2023/09/12 12:55:17;;;;;;;9.82;7.75;;;22.50;1.00;;;;;;4877201;29;20056;-76
2023/09/12 12:57:44;;;;;;;8.38;5.85;;;22.40;99.90;;;;;;4877366;29;20048;-76
2023/09/12 13:00:12;;;;;;;7.47;4.68;;;22.30;99.90;;;;;;4868310;29;20477;-76
2023/09/12 13:02:38;;;;;;;8.07;4.68;;;22.20;99.90;;;;;;4873444;29;20049;-76
2023/09/12 13:05:18;;;;;;;6.22;5.03;;;22.00;99.90;;;;;;4877207;29;20067;-76
2023/09/12 13:07:44;;;;;;;7.00;5.85;;;22.00;99.90;;;;;;4876959;29;20037;-76